createdAt,value
2022-11-25T04:32:25.992Z,97412.98
2022-11-25T04:37:28.919Z,97412.98
2022-11-25T04:42:30.746Z,97422.47
2022-11-25T04:47:32.533Z,97422.47
2022-11-25T04:52:34.324Z,97427.99
2022-11-25T04:57:36.180Z,97427.99
2022-11-25T05:02:38.505Z,97435.81
2022-11-25T05:07:40.902Z,97435.81
2022-11-25T05:12:42.820Z,97451.67
2022-11-25T05:17:44.600Z,97451.67
2022-11-25T05:22:46.385Z,97462.66
2022-11-25T05:27:48.157Z,97462.66
2022-11-25T05:32:49.963Z,97481.05
2022-11-25T05:37:51.673Z,97481.05
2022-11-25T05:42:53.748Z,97480.47
2022-11-25T05:47:55.549Z,97480.47
2022-11-25T05:52:57.340Z,97494.16
2022-11-25T05:57:59.377Z,97494.16
2022-11-25T06:03:01.853Z,97499.2
2022-11-25T06:08:04.212Z,97517.04
2022-11-25T06:13:05.984Z,97517.04
2022-11-25T06:18:07.813Z,97527.02
2022-11-25T06:23:10.174Z,97527.02
2022-11-25T06:28:14.277Z,97549.58
2022-11-25T06:33:15.960Z,97549.58
2022-11-25T06:38:17.749Z,97563.58
2022-11-25T06:43:19.514Z,97563.58
2022-11-25T06:48:21.343Z,97561.02
2022-11-25T06:53:24.980Z,97561.02
2022-11-25T07:03:32.741Z,97567.99
2022-11-25T07:08:35.290Z,97585.7
2022-11-25T07:13:37.008Z,97585.7
2022-11-25T07:18:39.420Z,97583.68
2022-11-25T07:23:42.435Z,97583.68
2022-11-25T07:28:44.452Z,97595.95
2022-11-25T07:33:46.521Z,97598.91
2022-11-25T07:38:48.595Z,97598.91
2022-11-25T07:43:51.307Z,97595.67
2022-11-25T07:48:54.248Z,97595.67
2022-11-25T07:53:56.582Z,97607.77
2022-11-25T07:58:58.519Z,97607.77
2022-11-25T08:04:00.608Z,97610.8
2022-11-25T08:09:02.381Z,97610.8
2022-11-25T08:14:04.221Z,97617.53
2022-11-25T08:19:07.308Z,97617.53
2022-11-25T08:24:12.877Z,97625.05
2022-11-25T08:29:15.458Z,97625.05
2022-11-25T08:34:18.481Z,97631.13
2022-11-25T08:44:27.242Z,97626.98
2022-11-25T08:49:29.329Z,97626.98
2022-11-25T08:54:31.066Z,97627.94
2022-11-25T08:59:33.029Z,97626.03
2022-11-25T09:04:35.053Z,97626.03
2022-11-25T09:09:38.193Z,97630.38
2022-11-25T09:14:41.011Z,97630.38
2022-11-25T09:19:42.815Z,97626.59
2022-11-25T09:24:44.608Z,97626.59
2022-11-25T09:29:46.383Z,97625.02
2022-11-25T09:34:48.113Z,97625.02
2022-11-25T09:39:49.929Z,97628.23
2022-11-25T09:44:58.337Z,97628.23
2022-11-25T09:50:05.608Z,97623.16
2022-11-25T10:00:14.241Z,97620.03
2022-11-25T10:05:19.806Z,97620.03
2022-11-25T10:10:23.703Z,97617.61
2022-11-25T10:15:27.271Z,97617.61
2022-11-25T10:20:30.339Z,97625.43
2022-11-25T10:25:35.631Z,97625.43
2022-11-25T10:30:40.292Z,97623.11
2022-11-25T10:35:45.876Z,97612
2022-11-25T10:40:49.866Z,97612
2022-11-25T10:45:55.523Z,97620.15
2022-11-25T10:56:10.543Z,97627.38
2022-11-25T11:01:15.841Z,97627.38
2022-11-25T11:11:27.984Z,97629.28
2022-11-25T11:16:33.069Z,97620.09
2022-11-25T11:21:35.903Z,97620.09
2022-11-25T11:26:37.635Z,97632.56
2022-11-25T11:31:40.857Z,97632.56
2022-11-25T11:41:55.071Z,97635.75
2022-11-25T11:52:09.673Z,97632.59
2022-11-25T12:02:22.962Z,97637.63
2022-11-25T12:07:30.031Z,97637.63
2022-11-25T12:12:34.675Z,97640.6
2022-11-25T12:17:41.224Z,97640.6
2022-11-25T12:22:48.673Z,97644.48
2022-11-25T12:27:52.666Z,97644.48
2022-11-25T12:33:01.394Z,97642.25
2022-11-25T12:43:15.471Z,97641.94
2022-11-25T12:53:28.699Z,97632.31
2022-11-25T13:03:47.827Z,97629.63
2022-11-25T13:08:55.890Z,97632.83
2022-11-25T13:14:03.541Z,97632.83
2022-11-25T13:19:09.108Z,97628.5
2022-11-25T13:34:31.071Z,97629.25
2022-11-25T13:39:33.856Z,97639.14
2022-11-25T13:54:50.018Z,97651.73
2022-11-25T13:59:53.387Z,97658.41
2022-11-25T14:04:58.553Z,97658.41
2022-11-25T14:20:25.515Z,97678.52
2022-11-25T14:25:28.636Z,97664.5
2022-11-25T14:30:31.210Z,97664.5
2022-11-25T14:40:44.663Z,97673.25
2022-11-25T14:45:48.112Z,97680.69
2022-11-25T14:50:54.433Z,97680.69
2022-11-25T14:55:56.810Z,97696.24
2022-11-25T15:01:00.541Z,97696.24
2022-11-25T15:06:03.789Z,97704.13
2022-11-25T15:11:10.215Z,97704.13
2022-11-25T15:16:14.408Z,97703.59
2022-11-25T15:21:18.942Z,97704.02
2022-11-25T15:26:21.451Z,97704.02
2022-11-25T15:31:26.827Z,97703.91
2022-11-25T15:36:29.093Z,97703.91
2022-11-25T15:41:32.929Z,97711.13
2022-11-25T15:46:35.457Z,97711.13
2022-11-25T15:51:40.188Z,97713.73
2022-11-25T15:56:44.671Z,97713.73
2022-11-25T16:01:46.850Z,97723.59
2022-11-25T16:06:53.406Z,97723.59
2022-11-25T16:17:02.131Z,97719.94
2022-11-25T16:22:04.345Z,97713.47
2022-11-25T16:32:13.655Z,97729.88
2022-11-25T16:37:15.558Z,97735.8
2022-11-25T16:42:18.907Z,97735.8
2022-11-25T16:47:21.819Z,97749.63
2022-11-25T16:52:24.227Z,97749.63
2022-11-25T16:57:26.058Z,97754.31
2022-11-25T17:02:28.769Z,97754.31
2022-11-25T17:07:35.140Z,97759.81
2022-11-25T17:12:39.315Z,97759.81
2022-11-25T17:17:42.285Z,97771.73
2022-11-25T17:22:44.725Z,97771.73
2022-11-25T17:27:48.458Z,97778.42
2022-11-25T17:32:56.258Z,97778.42
2022-11-25T17:38:00.185Z,97772.73
2022-11-25T17:43:02.722Z,97772.73
2022-11-25T17:48:09.043Z,97763.52
2022-11-25T17:53:14.295Z,97763.52
2022-11-25T17:58:17.660Z,97779.17
2022-11-25T18:03:19.909Z,97786.52
2022-11-25T18:08:23.733Z,97786.52
2022-11-25T18:13:26.933Z,97793.99
2022-11-25T18:18:29.572Z,97793.99
2022-11-25T18:23:33.000Z,97810.66
2022-11-25T18:28:35.542Z,97810.66
2022-11-25T18:33:39.619Z,97812.13
2022-11-25T18:38:42.250Z,97812.13
2022-11-25T18:43:44.811Z,97813.59
2022-11-25T18:48:48.615Z,97813.59
2022-11-25T18:53:51.204Z,97822.92
2022-11-25T18:58:53.837Z,97822.92
2022-11-25T19:03:58.205Z,97824.08
2022-11-25T19:09:01.338Z,97824.08
2022-11-25T19:14:07.315Z,97836.49
2022-11-25T19:19:13.361Z,97836.49
2022-11-25T19:24:18.640Z,97844.89
2022-11-25T19:29:22.502Z,97845.52
2022-11-25T19:34:27.860Z,97845.52
2022-11-25T19:39:34.439Z,97857.59
2022-11-25T19:44:38.860Z,97857.59
2022-11-25T19:49:42.606Z,97864.03
2022-11-25T19:54:46.176Z,97864.03
2022-11-25T19:59:48.995Z,97877.74
2022-11-25T20:04:53.940Z,97877.74
2022-11-25T20:09:59.670Z,97895.34
2022-11-25T20:15:02.778Z,97895.34
2022-11-25T20:20:08.108Z,97896.66
2022-11-25T20:25:13.213Z,97896.66
2022-11-25T20:30:17.527Z,97906.12
2022-11-25T20:35:21.782Z,97906.12
2022-11-25T20:40:26.195Z,97919.41
2022-11-25T20:45:29.512Z,97931.95
2022-11-25T20:50:32.712Z,97931.95
2022-11-25T20:55:36.991Z,97933.34
2022-11-25T21:00:41.490Z,97933.34
2022-11-25T21:05:44.076Z,97936.61
2022-11-25T21:10:47.395Z,97936.61
2022-11-25T21:15:51.471Z,97930.07
2022-11-25T21:20:56.418Z,97930.07
2022-11-25T21:26:02.786Z,97946.08
2022-11-25T21:36:15.101Z,97932.77
2022-11-25T21:41:17.571Z,97932.77
2022-11-25T21:46:20.431Z,97940.5
2022-11-25T21:51:22.280Z,97940.5
2022-11-25T21:56:25.314Z,97940.5
2022-11-25T22:01:27.780Z,97940.5
2022-11-25T22:06:30.251Z,97940.5
2022-11-25T22:11:33.287Z,97940.5
2022-11-25T22:16:35.769Z,97940.5
2022-11-25T22:21:37.689Z,97940.5
2022-11-25T22:26:39.511Z,97940.5
2022-11-25T22:31:41.846Z,97940.5
2022-11-25T22:36:43.811Z,97940.5
2022-11-25T22:41:47.483Z,97940.5
